Time,TemperatureF,DewpointF,PressureIn,WindDirection,WindDirectionDegrees,WindSpeedMPH,WindSpeedGustMPH,Humidity,HourlyPrecipIn,Conditions,Clouds,dailyrainin,SoftwareType,DateUTC
2013-02-05 00:03:00,37.0,26.0,30.10,South,180,2.0,6.0,64,0.00,,,0.00,,2013-02-05 05:03:00,
2013-02-05 00:12:00,37.0,26.0,30.10,South,180,2.0,6.0,64,0.00,,,0.00,,2013-02-05 05:12:00,
2013-02-05 00:22:00,37.0,26.0,30.10,South,180,2.0,6.0,64,0.00,,,0.00,,2013-02-05 05:22:00,
2013-02-05 00:32:00,37.0,26.0,30.10,South,180,2.0,6.0,64,0.00,,,0.00,,2013-02-05 05:32:00,
2013-02-05 01:40:00,35.0,25.0,30.07,SSW,203,0.0,3.0,67,0.00,,,0.00,,2013-02-05 06:40:00,
2013-02-05 02:01:00,35.0,25.0,30.07,SSW,203,0.0,3.0,67,0.00,,,0.00,,2013-02-05 07:01:00,
2013-02-05 02:11:00,35.0,25.0,30.07,SSW,203,0.0,3.0,67,0.00,,,0.00,,2013-02-05 07:11:00,
2013-02-05 02:22:00,35.0,25.0,30.07,SSW,203,0.0,3.0,67,0.00,,,0.00,,2013-02-05 07:22:00,
2013-02-05 02:32:00,35.0,25.0,30.07,SSW,203,0.0,3.0,67,0.00,,,0.00,,2013-02-05 07:32:00,
2013-02-05 03:01:00,35.0,35.0,30.06,North,0,255.0,255.0,100,0.00,,,0.00,,2013-02-05 08:01:00,
2013-02-05 04:02:00,35.0,35.0,30.05,North,0,255.0,255.0,100,0.00,,,0.00,,2013-02-05 09:02:00,
2013-02-05 05:02:00,35.0,35.0,30.04,North,0,255.0,255.0,100,0.00,,,0.00,,2013-02-05 10:02:00,
2013-02-05 07:40:00,35.0,35.0,30.07,North,0,255.0,255.0,100,0.00,,,0.00,,2013-02-05 12:40:00,
2013-02-05 08:02:00,35.0,35.0,30.07,North,0,255.0,255.0,100,0.00,,,0.00,,2013-02-05 13:02:00,
2013-02-05 08:12:00,35.0,35.0,30.07,North,0,255.0,255.0,100,0.00,,,0.00,,2013-02-05 13:12:00,
2013-02-05 08:22:00,35.0,35.0,30.07,North,0,255.0,255.0,100,0.00,,,0.00,,2013-02-05 13:22:00,
2013-02-05 08:32:00,35.0,35.0,30.07,North,0,255.0,255.0,100,0.00,,,0.00,,2013-02-05 13:32:00,
2013-02-05 08:40:00,37.0,31.0,30.09,WNW,293,2.0,12.0,80,0.00,,,0.00,,2013-02-05 13:40:00,
2013-02-05 09:01:00,37.0,31.0,30.09,WNW,293,2.0,12.0,80,0.00,,,0.00,,2013-02-05 14:01:00,
2013-02-05 09:12:00,37.0,31.0,30.09,WNW,293,2.0,12.0,80,0.00,,,0.00,,2013-02-05 14:12:00,
2013-02-05 09:22:00,37.0,31.0,30.09,WNW,293,2.0,12.0,80,0.00,,,0.00,,2013-02-05 14:22:00,
2013-02-05 09:32:00,37.0,31.0,30.09,WNW,293,2.0,12.0,80,0.00,,,0.00,,2013-02-05 14:32:00,
2013-02-05 09:40:00,38.0,32.0,30.10,WNW,293,3.0,5.0,80,0.00,,,0.00,,2013-02-05 14:40:00,
2013-02-05 10:02:00,38.0,32.0,30.10,WNW,293,3.0,5.0,80,0.00,,,0.00,,2013-02-05 15:02:00,
2013-02-05 10:11:00,38.0,32.0,30.10,WNW,293,3.0,5.0,80,0.00,,,0.00,,2013-02-05 15:11:00,
2013-02-05 10:22:00,38.0,32.0,30.10,WNW,293,3.0,5.0,80,0.00,,,0.00,,2013-02-05 15:22:00,
2013-02-05 10:32:00,38.0,32.0,30.10,WNW,293,3.0,5.0,80,0.00,,,0.00,,2013-02-05 15:32:00,
2013-02-05 10:40:00,40.0,33.0,30.11,West,270,6.0,12.0,77,0.00,,,0.00,,2013-02-05 15:40:00,
2013-02-05 11:01:00,40.0,33.0,30.11,West,270,6.0,12.0,77,0.00,,,0.00,,2013-02-05 16:01:00,
2013-02-05 11:12:00,40.0,33.0,30.11,West,270,6.0,12.0,77,0.00,,,0.00,,2013-02-05 16:12:00,
2013-02-05 11:22:00,40.0,33.0,30.11,West,270,6.0,12.0,77,0.00,,,0.00,,2013-02-05 16:22:00,
2013-02-05 11:32:00,40.0,33.0,30.11,West,270,6.0,12.0,77,0.00,,,0.00,,2013-02-05 16:32:00,
2013-02-05 12:40:00,42.0,34.0,30.07,West,270,1.0,22.0,74,0.00,,,0.00,,2013-02-05 17:40:00,
2013-02-05 13:02:00,42.0,34.0,30.07,West,270,1.0,22.0,74,0.00,,,0.00,,2013-02-05 18:02:00,
2013-02-05 13:11:00,42.0,34.0,30.07,West,270,1.0,22.0,74,0.00,,,0.00,,2013-02-05 18:11:00,
2013-02-05 13:22:00,42.0,34.0,30.07,West,270,1.0,22.0,74,0.00,,,0.00,,2013-02-05 18:22:00,
2013-02-05 13:32:00,42.0,34.0,30.07,West,270,1.0,22.0,74,0.00,,,0.00,,2013-02-05 18:32:00,
2013-02-05 14:40:00,43.0,34.0,30.04,WNW,293,2.0,13.0,70,0.00,,,0.00,,2013-02-05 19:40:00,
2013-02-05 15:02:00,43.0,34.0,30.04,WNW,293,2.0,13.0,70,0.00,,,0.00,,2013-02-05 20:02:00,
2013-02-05 15:11:00,43.0,34.0,30.04,WNW,293,2.0,13.0,70,0.00,,,0.00,,2013-02-05 20:11:00,
2013-02-05 15:22:00,43.0,34.0,30.04,WNW,293,2.0,13.0,70,0.00,,,0.00,,2013-02-05 20:22:00,
2013-02-05 15:32:00,43.0,34.0,30.04,WNW,293,2.0,13.0,70,0.00,,,0.00,,2013-02-05 20:32:00,
2013-02-05 15:40:00,42.0,31.0,30.05,WNW,293,1.0,12.0,66,0.00,,,0.00,,2013-02-05 20:40:00,
2013-02-05 16:02:00,42.0,31.0,30.05,WNW,293,1.0,12.0,66,0.00,,,0.00,,2013-02-05 21:02:00,
2013-02-05 16:11:00,42.0,31.0,30.05,WNW,293,1.0,12.0,66,0.00,,,0.00,,2013-02-05 21:11:00,
2013-02-05 16:22:00,42.0,31.0,30.05,WNW,293,1.0,12.0,66,0.00,,,0.00,,2013-02-05 21:22:00,
2013-02-05 16:32:00,42.0,31.0,30.05,WNW,293,1.0,12.0,66,0.00,,,0.00,,2013-02-05 21:32:00,
2013-02-05 17:40:00,40.0,31.0,30.05,WNW,293,0.0,3.0,71,0.00,,,0.00,,2013-02-05 22:40:00,
2013-02-05 18:02:00,40.0,31.0,30.05,WNW,293,0.0,3.0,71,0.00,,,0.00,,2013-02-05 23:02:00,
2013-02-05 18:11:00,40.0,31.0,30.05,WNW,293,0.0,3.0,71,0.00,,,0.00,,2013-02-05 23:11:00,
2013-02-05 18:22:00,40.0,31.0,30.05,WNW,293,0.0,3.0,71,0.00,,,0.00,,2013-02-05 23:22:00,
2013-02-05 18:32:00,40.0,31.0,30.05,WNW,293,0.0,3.0,71,0.00,,,0.00,,2013-02-05 23:32:00,
2013-02-05 18:40:00,37.0,31.0,30.06,SE,135,0.0,1.0,78,0.00,,,0.00,,2013-02-05 23:40:00,
2013-02-05 19:02:00,37.0,31.0,30.06,SE,135,0.0,1.0,78,0.00,,,0.00,,2013-02-06 00:02:00,
2013-02-05 19:12:00,37.0,31.0,30.06,SE,135,0.0,1.0,78,0.00,,,0.00,,2013-02-06 00:12:00,
2013-02-05 19:22:00,37.0,31.0,30.06,SE,135,0.0,1.0,78,0.00,,,0.00,,2013-02-06 00:22:00,
2013-02-05 19:32:00,37.0,31.0,30.06,SE,135,0.0,1.0,78,0.00,,,0.00,,2013-02-06 00:32:00,
2013-02-05 19:40:00,37.0,31.0,30.06,SSE,158,0.0,3.0,80,0.00,,,0.00,,2013-02-06 00:40:00,
2013-02-05 20:02:00,37.0,31.0,30.06,SSE,158,0.0,3.0,80,0.00,,,0.00,,2013-02-06 01:02:00,
2013-02-05 20:12:00,37.0,31.0,30.06,SSE,158,0.0,3.0,80,0.00,,,0.00,,2013-02-06 01:12:00,
2013-02-05 20:22:00,37.0,31.0,30.06,SSE,158,0.0,3.0,80,0.00,,,0.00,,2013-02-06 01:22:00,
2013-02-05 20:32:00,37.0,31.0,30.06,SSE,158,0.0,3.0,80,0.00,,,0.00,,2013-02-06 01:32:00,
2013-02-05 21:40:00,36.0,31.0,30.07,SSW,203,0.0,1.0,82,0.00,,,0.00,,2013-02-06 02:40:00,
2013-02-05 22:03:00,36.0,31.0,30.07,SSW,203,0.0,1.0,82,0.00,,,0.00,,2013-02-06 03:03:00,
2013-02-05 22:12:00,36.0,31.0,30.07,SSW,203,0.0,1.0,82,0.00,,,0.00,,2013-02-06 03:12:00,
2013-02-05 22:22:00,36.0,31.0,30.07,SSW,203,0.0,1.0,82,0.00,,,0.00,,2013-02-06 03:22:00,
2013-02-05 22:32:00,36.0,31.0,30.07,SSW,203,0.0,1.0,82,0.00,,,0.00,,2013-02-06 03:32:00,
2013-02-05 23:40:00,35.0,31.0,30.08,NW,315,2.0,7.0,86,0.00,,,0.00,,2013-02-06 04:40:00,